Bei Facebook empfehlenBei Twitter postenGoogle plusPinterest

Das Wetter im Erzgebirge am 07.07.2016

Wetter und Klima am 07.07.2016 Holzhau im Erzgebirge (630m ü.NN)
Letzte gemessene Temperatur und Uhrzeit der Messung23:45:00 Uhr8.20 °C
Temperatur (Maximum / Höchstwert) und Uhrzeit der Messung16:30:00 Uhr20.90 °C
Temperatur (Minimum / Tiefstwert) und Uhrzeit der Messung06:00:006.40 °C
Errechneter Absolutwert der Temperaturschwankungen zwischen Tmin und Tmax des Tages14.50 K
Errechnete Tagesmitteltemperatur13.89375 °C
Gesamt - Niederschlag des Tages (in flüssiger Form)0.00 Liter / m²
Luftdruck (Maximum / Höchstwert) und Zeitpunkt der Messung11:00:00 Uhr1018.70 hPa
Luftdruck (Minimum / Tiefstwert) und Zeitpunkt der Messung01:00:00 Uhr1016.20 hPa
Errechneter Absolutwert der Luftdruckschwankungen des Tages2.50 hPa
Höchste gemessene Windgeschwindigkeit und Uhrzeit der Messung23:45:00 Uhr0.00 km/h
Errechnete Windhäufigkeit in Relation zu den Messwerten des Tages0.00000 %
Niedrigste Windkühle (Windchill) und Zeitpunkt der Messung06:00:00 Uhr6.40 °C
Taupunkt (Maximum / Höchstwert) und Uhrzeit der Messung07:45:00 Uhr11.30 °C
Taupunkt (Minimum / Tiefstwert) und Uhrzeit der Messung06:00:004.40 °C
Anzahl der automatisch eingelesenen Messwerte 96

Detaillierte Wetter- und Klima- Messwerte für den 07.07.2016 in Holzhau im Erzgebirge (630m ü.NN)
ZeitTemperaturLuftdruckRel. LuftfeuchteWindWindrichtungWindchillTaupunktNiederschlag l/m²
23:45:008.20 °C1017.70 hPa83.00 %5.50 °C 
23:30:008.30 °C1017.70 hPa82.00 %5.40 °C 
23:15:008.40 °C1017.70 hPa81.00 %5.30 °C 
23:00:008.60 °C1017.60 hPa80.00 %5.40 °C 
22:45:008.90 °C1017.50 hPa79.00 %5.50 °C 
22:30:009.30 °C1017.60 hPa77.00 %5.50 °C 
22:15:009.90 °C1017.50 hPa76.00 %5.90 °C 
22:00:0010.60 °C1017.50 hPa75.00 %6.40 °C 
21:45:0011.40 °C1017.60 hPa73.00 %6.70 °C 
21:30:0012.40 °C1017.60 hPa71.00 %7.30 °C 
21:15:0013.30 °C1017.40 hPa70.00 %8.00 °C 
21:00:0014.10 °C1017.50 hPa67.00 %8.10 °C 
20:45:0014.90 °C1017.50 hPa65.00 %8.40 °C 
20:30:0015.80 °C1017.50 hPa63.00 %8.80 °C 
20:15:0016.40 °C1017.50 hPa61.00 %8.90 °C 
20:00:0016.90 °C1017.60 hPa58.00 %8.60 °C 
19:45:0017.30 °C1017.80 hPa57.00 %8.70 °C 
19:30:0017.60 °C1017.70 hPa56.00 %8.70 °C 
19:15:0017.90 °C1017.80 hPa55.00 %8.70 °C 
19:00:0018.30 °C1017.70 hPa54.00 %8.80 °C 
18:45:0018.90 °C1017.70 hPa53.00 %9.10 °C 
18:30:0018.90 °C1017.60 hPa52.00 %8.80 °C 
18:15:0019.30 °C1017.60 hPa51.00 %8.90 °C 
18:00:0019.90 °C1017.60 hPa50.00 %9.20 °C 
17:45:0019.80 °C1017.60 hPa50.00 %9.10 °C 
17:30:0020.30 °C1017.60 hPa49.00 %9.20 °C 
17:15:0020.40 °C1017.30 hPa51.00 %9.90 °C 
17:00:0020.20 °C1017.40 hPa50.00 %9.50 °C 
16:45:0020.40 °C1017.50 hPa50.00 %9.60 °C 
16:30:0020.90 °C1017.70 hPa51.00 %10.40 °C 
16:15:0020.40 °C1017.70 hPa51.00 %9.90 °C 
16:00:0020.10 °C1017.70 hPa51.00 %9.70 °C 
15:45:0020.30 °C1017.70 hPa51.00 %9.80 °C 
15:30:0020.90 °C1017.50 hPa52.00 %10.70 °C 
15:15:0020.90 °C1017.50 hPa52.00 %10.70 °C 
15:00:0020.30 °C1017.70 hPa53.00 %10.40 °C 
14:45:0019.90 °C1017.70 hPa53.00 %10.00 °C 
14:30:0019.50 °C1017.90 hPa54.00 %10.00 °C 
14:15:0019.90 °C1017.90 hPa53.00 %10.00 °C 
14:00:0019.90 °C1018.00 hPa55.00 %10.60 °C 
13:45:0019.20 °C1018.20 hPa57.00 %10.50 °C 
13:30:0018.40 °C1018.20 hPa59.00 %10.30 °C 
13:15:0018.90 °C1018.30 hPa58.00 %10.50 °C 
13:00:0018.00 °C1018.50 hPa58.00 %9.60 °C 
12:45:0018.10 °C1018.50 hPa60.00 %10.20 °C 
12:30:0017.60 °C1018.40 hPa60.00 %9.80 °C 
12:15:0017.40 °C1018.60 hPa61.00 %9.80 °C 
12:00:0017.10 °C1018.30 hPa62.00 %9.80 °C 
11:45:0017.50 °C1018.60 hPa63.00 %10.40 °C 
11:30:0016.50 °C1018.60 hPa64.00 %9.70 °C 
11:15:0017.20 °C1018.50 hPa67.00 %11.00 °C 
11:00:0016.60 °C1018.70 hPa66.00 %10.20 °C 
10:45:0016.20 °C1018.50 hPa69.00 %10.50 °C 
10:30:0015.50 °C1018.70 hPa71.00 %10.30 °C 
10:15:0014.90 °C1018.60 hPa72.00 %9.90 °C 
10:00:0014.70 °C1018.70 hPa74.00 %10.10 °C 
09:45:0014.40 °C1018.50 hPa73.00 %9.60 °C 
09:30:0014.70 °C1018.50 hPa73.00 %9.90 °C 
09:15:0015.10 °C1018.40 hPa74.00 %10.50 °C 
09:00:0014.40 °C1018.40 hPa75.00 %10.00 °C 
08:45:0014.10 °C1018.40 hPa76.00 %9.90 °C 
08:30:0013.90 °C1018.20 hPa76.00 %9.70 °C 
08:15:0014.30 °C1018.00 hPa76.00 %10.10 °C 
08:00:0014.80 °C1017.70 hPa78.00 %11.00 °C 
07:45:0014.30 °C1017.70 hPa82.00 %11.30 °C 
07:30:0012.70 °C1017.60 hPa87.00 %10.60 °C 
07:15:0010.40 °C1017.30 hPa90.00 %8.80 °C 
07:00:008.60 °C1017.40 hPa89.00 %6.90 °C 
06:45:007.20 °C1017.60 hPa88.00 %5.30 °C 
06:30:006.80 °C1017.40 hPa88.00 %5.00 °C 
06:15:006.50 °C1017.30 hPa87.00 %4.50 °C 
06:00:006.40 °C1017.30 hPa87.00 %4.40 °C 
05:45:006.60 °C1017.10 hPa86.00 %4.40 °C 
05:30:007.00 °C1017.10 hPa85.00 %4.70 °C 
05:15:007.50 °C1017.10 hPa85.00 %5.10 °C 
05:00:008.00 °C1016.90 hPa85.00 %5.60 °C 
04:45:008.50 °C1017.00 hPa85.00 %6.10 °C 
04:30:008.90 °C1016.70 hPa84.00 %6.30 °C 
04:15:009.10 °C1016.70 hPa84.00 %6.50 °C 
04:00:009.20 °C1016.60 hPa84.00 %6.60 °C 
03:45:009.30 °C1016.30 hPa84.00 %6.70 °C 
03:30:009.40 °C1016.60 hPa84.00 %6.80 °C 
03:15:009.40 °C1016.50 hPa84.00 %6.80 °C 
03:00:009.30 °C1016.60 hPa84.00 %6.70 °C 
02:45:009.30 °C1016.70 hPa83.00 %6.60 °C 
02:30:009.10 °C1016.70 hPa82.00 %6.20 °C 
02:15:009.40 °C1016.50 hPa82.00 %6.50 °C 
02:00:009.60 °C1016.50 hPa82.00 %6.70 °C 
01:45:009.50 °C1016.40 hPa82.00 %6.60 °C 
01:30:009.50 °C1016.30 hPa82.00 %6.60 °C 
01:15:009.40 °C1016.30 hPa82.00 %6.50 °C 
01:00:009.30 °C1016.20 hPa82.00 %6.40 °C 
00:45:008.90 °C1016.20 hPa82.00 %6.00 °C 
00:30:008.80 °C1016.30 hPa82.00 %5.90 °C 
00:15:008.60 °C1016.20 hPa82.00 %5.70 °C 
00:00:008.20 °C1016.20 hPa81.00 %5.10 °C 

Permanenter Link zu dieser Seite: Wetter im Erzgebirge am 07.07.2016
Performance-Info: Die Erstellung der Seite / Statistik(en) / Tabelle(n) erforderte 5 Datenbankserver-Abfrage(n) und dauerte 101 Millisekunden. (Dieser Messwert ist von der Gesamt-Auslastung des Servers abhängig.)
Erzgebirge - Wetter | Erzgebirge - Wetter (Mobilgeräte) | Komplette Klimadatenbank